createdAt,value
2023-03-31T00:00:50.642Z,7.29
2023-03-31T00:04:05.643Z,7.32
2023-03-31T00:07:12.325Z,7.42
2023-03-31T00:10:20.052Z,7.42
2023-03-31T00:13:26.705Z,7.41
2023-03-31T00:16:34.047Z,7.44
2023-03-31T00:19:44.412Z,7.41
2023-03-31T00:22:50.899Z,7.41
2023-03-31T00:25:57.934Z,7.33
2023-03-31T00:29:06.112Z,7.23
2023-03-31T00:32:11.947Z,7.23
2023-03-31T00:35:22.921Z,7.09
2023-03-31T00:38:29.493Z,7.05
2023-03-31T00:41:36.128Z,6.96
2023-03-31T00:45:19.479Z,7.01
2023-03-31T00:48:28.006Z,7.03
2023-03-31T00:51:38.753Z,7.02
2023-03-31T00:54:52.977Z,6.95
2023-03-31T00:58:02.290Z,6.98
2023-03-31T01:01:09.195Z,6.95
2023-03-31T01:04:22.908Z,6.96
2023-03-31T01:07:44.540Z,6.99
2023-03-31T01:10:57.332Z,6.94
2023-03-31T01:14:05.671Z,6.96
2023-03-31T01:17:19.512Z,7.02
2023-03-31T01:20:47.479Z,7.00
2023-03-31T01:24:47.891Z,6.99
2023-03-31T01:28:15.718Z,7.00
2023-03-31T01:32:11.393Z,7.03
2023-03-31T01:36:11.883Z,7.02
2023-03-31T01:40:17.321Z,7.10
2023-03-31T01:43:36.151Z,7.06
2023-03-31T01:46:56.673Z,7.04
2023-03-31T01:50:13.455Z,6.97
2023-03-31T01:53:35.056Z,6.86
2023-03-31T01:56:55.602Z,6.88
2023-03-31T02:00:11.916Z,6.81
2023-03-31T02:03:33.455Z,6.79
2023-03-31T02:06:46.881Z,6.59
2023-03-31T02:10:02.322Z,6.77
2023-03-31T02:13:17.096Z,6.83
2023-03-31T02:16:32.605Z,6.89
2023-03-31T02:19:47.736Z,6.93
2023-03-31T02:23:00.453Z,6.95
2023-03-31T02:26:14.527Z,7.01
2023-03-31T02:29:25.633Z,7.00
2023-03-31T02:32:40.440Z,6.59
2023-03-31T02:35:47.732Z,6.97
2023-03-31T02:39:02.411Z,6.99
2023-03-31T02:42:10.247Z,6.98
2023-03-31T02:45:47.547Z,6.98
2023-03-31T02:49:00.934Z,6.89
2023-03-31T02:52:43.909Z,6.77
2023-03-31T02:56:22.577Z,6.80
2023-03-31T02:59:51.676Z,6.80
2023-03-31T03:03:26.981Z,6.70
2023-03-31T03:06:54.222Z,6.80
2023-03-31T03:10:11.681Z,6.79
2023-03-31T03:13:31.477Z,6.83
2023-03-31T03:16:46.973Z,6.77
2023-03-31T03:20:02.442Z,6.70
2023-03-31T03:23:09.013Z,6.67
2023-03-31T03:26:21.850Z,6.75
2023-03-31T03:29:28.617Z,6.61
2023-03-31T03:32:34.395Z,6.83
2023-03-31T03:35:43.751Z,6.77
2023-03-31T03:38:49.356Z,6.87
2023-03-31T03:41:56.002Z,6.90
2023-03-31T03:45:01.690Z,6.92
2023-03-31T03:48:08.875Z,6.91
2023-03-31T03:51:17.344Z,6.91
2023-03-31T03:54:23.955Z,6.95
2023-03-31T03:57:29.813Z,7.00
2023-03-31T04:00:37.032Z,7.04
2023-03-31T04:03:42.690Z,7.01
2023-03-31T04:06:52.253Z,7.01
2023-03-31T04:09:58.161Z,6.90
2023-03-31T04:13:05.518Z,6.94
2023-03-31T04:16:11.970Z,6.97
2023-03-31T04:19:22.177Z,6.91
2023-03-31T04:22:35.648Z,6.84
2023-03-31T04:25:46.629Z,6.75
2023-03-31T04:28:52.858Z,6.72
2023-03-31T04:32:00.300Z,6.64
2023-03-31T04:35:07.018Z,6.66
2023-03-31T04:38:18.942Z,6.67
2023-03-31T04:41:25.010Z,6.62
2023-03-31T04:44:32.062Z,6.63
2023-03-31T04:47:37.913Z,6.57
2023-03-31T04:50:44.911Z,6.50
2023-03-31T04:53:53.584Z,6.43
2023-03-31T04:57:00.669Z,6.38
2023-03-31T05:00:08.291Z,6.36
2023-03-31T05:03:14.991Z,6.38
2023-03-31T05:06:21.421Z,6.39
2023-03-31T05:09:30.665Z,6.42
2023-03-31T05:12:38.451Z,6.39
2023-03-31T05:15:45.403Z,6.47
2023-03-31T05:18:51.192Z,6.51
2023-03-31T05:21:57.672Z,6.52
2023-03-31T05:25:07.334Z,6.55
2023-03-31T05:28:14.091Z,6.48
2023-03-31T05:31:19.946Z,6.46
2023-03-31T05:34:26.623Z,6.40
2023-03-31T05:37:32.728Z,6.39
2023-03-31T05:40:42.330Z,6.36
2023-03-31T05:43:48.121Z,6.24
2023-03-31T05:46:54.683Z,6.26
2023-03-31T05:50:00.326Z,6.25
2023-03-31T05:53:06.999Z,6.26
2023-03-31T05:56:15.420Z,6.28
2023-03-31T05:59:22.546Z,6.40
2023-03-31T06:02:28.448Z,6.49
2023-03-31T06:05:35.097Z,6.54
2023-03-31T06:08:41.263Z,6.67
2023-03-31T06:11:50.827Z,6.77
2023-03-31T06:14:56.492Z,6.87
2023-03-31T06:18:03.685Z,6.97
2023-03-31T06:21:10.495Z,6.93
2023-03-31T06:24:17.295Z,7.08
2023-03-31T06:27:25.827Z,7.17
2023-03-31T06:30:32.307Z,7.24
2023-03-31T06:33:39.152Z,7.37
2023-03-31T06:36:46.040Z,7.47
2023-03-31T06:39:52.168Z,7.60
2023-03-31T06:43:01.756Z,7.77
2023-03-31T06:46:09.511Z,7.86
2023-03-31T06:49:16.692Z,7.99
2023-03-31T06:52:22.559Z,8.12
2023-03-31T06:55:29.372Z,8.23
2023-03-31T06:58:38.541Z,8.29
2023-03-31T07:01:46.419Z,8.32
2023-03-31T07:04:52.673Z,8.43
2023-03-31T07:08:02.569Z,8.55
2023-03-31T07:11:09.159Z,7.94
2023-03-31T07:14:18.939Z,8.72
2023-03-31T07:17:25.673Z,8.77
2023-03-31T07:20:34.177Z,8.72
2023-03-31T07:23:40.082Z,8.82
2023-03-31T07:26:46.853Z,8.82
2023-03-31T07:29:55.473Z,8.91
2023-03-31T07:33:02.866Z,8.92
2023-03-31T07:36:13.328Z,9.01
2023-03-31T07:39:21.105Z,9.06
2023-03-31T07:42:26.962Z,9.14
2023-03-31T07:45:38.871Z,9.18
2023-03-31T07:48:44.684Z,9.29
2023-03-31T07:51:51.176Z,9.37
2023-03-31T07:54:56.942Z,9.39
2023-03-31T07:58:03.474Z,9.43
2023-03-31T08:01:12.584Z,9.61
2023-03-31T08:04:19.339Z,9.86
2023-03-31T08:07:26.244Z,10.08
2023-03-31T08:10:33.115Z,10.33
2023-03-31T08:13:39.567Z,10.53
2023-03-31T08:16:49.304Z,10.74
2023-03-31T08:19:55.022Z,10.74
2023-03-31T08:23:01.778Z,10.68
2023-03-31T08:26:15.768Z,10.68
2023-03-31T08:29:24.374Z,10.89
2023-03-31T08:32:33.322Z,11.15
2023-03-31T08:35:39.845Z,11.32
2023-03-31T08:38:49.974Z,11.43
2023-03-31T08:42:11.424Z,11.58
2023-03-31T08:45:29.172Z,11.51
2023-03-31T08:48:49.161Z,11.52
2023-03-31T08:52:01.714Z,11.63
2023-03-31T08:55:17.965Z,11.71
2023-03-31T08:58:40.391Z,11.76
2023-03-31T09:02:00.012Z,11.72
2023-03-31T09:06:00.118Z,11.64
2023-03-31T09:09:19.897Z,11.59
2023-03-31T09:12:41.397Z,11.51
2023-03-31T09:16:01.950Z,11.35
2023-03-31T09:19:21.568Z,11.41
2023-03-31T09:22:38.959Z,11.39
2023-03-31T09:25:49.545Z,11.44
2023-03-31T09:29:02.724Z,11.51
2023-03-31T09:32:20.919Z,11.52
2023-03-31T09:35:33.933Z,11.38
2023-03-31T09:38:45.723Z,11.33
2023-03-31T09:41:57.305Z,11.26
2023-03-31T09:45:03.254Z,11.35
2023-03-31T09:48:19.675Z,11.44
2023-03-31T09:51:33.470Z,11.44
2023-03-31T09:54:53.000Z,11.52
2023-03-31T09:57:59.160Z,11.72
2023-03-31T10:01:10.813Z,11.89
2023-03-31T10:04:26.888Z,12.16
2023-03-31T10:07:34.497Z,12.30
2023-03-31T10:10:51.541Z,12.14
2023-03-31T10:14:06.950Z,12.42
2023-03-31T10:17:21.101Z,12.61
2023-03-31T10:20:41.350Z,12.74
2023-03-31T10:23:52.221Z,12.60
2023-03-31T10:27:01.784Z,12.94
2023-03-31T10:30:16.460Z,12.89
2023-03-31T10:33:29.647Z,12.76
2023-03-31T10:36:36.172Z,12.70
2023-03-31T10:39:42.828Z,12.41
2023-03-31T10:43:04.765Z,12.41
2023-03-31T10:46:13.053Z,12.38
2023-03-31T10:49:27.515Z,12.64
2023-03-31T10:52:47.934Z,12.85
2023-03-31T10:56:24.006Z,12.99
2023-03-31T10:59:58.960Z,13.06
2023-03-31T11:04:07.121Z,13.18
2023-03-31T11:07:35.447Z,13.46
2023-03-31T11:11:02.490Z,13.53
2023-03-31T11:14:24.218Z,13.62
2023-03-31T11:17:53.578Z,13.71
2023-03-31T11:21:17.347Z,13.69
2023-03-31T11:24:48.151Z,13.66
2023-03-31T11:28:33.563Z,13.65
2023-03-31T11:31:55.364Z,13.55
2023-03-31T11:35:39.097Z,13.38
2023-03-31T11:39:18.467Z,13.20
2023-03-31T11:42:32.307Z,12.86
2023-03-31T11:45:47.742Z,12.94
2023-03-31T11:49:04.113Z,12.92
2023-03-31T11:52:22.248Z,13.00
2023-03-31T11:55:34.955Z,13.09
2023-03-31T11:58:49.789Z,13.12
2023-03-31T12:02:13.891Z,12.60
2023-03-31T12:05:24.257Z,13.41
2023-03-31T12:08:47.276Z,13.49
2023-03-31T12:12:04.708Z,13.49
2023-03-31T12:15:28.421Z,13.65
2023-03-31T12:18:47.131Z,13.76
2023-03-31T12:21:59.877Z,13.99
2023-03-31T12:25:09.824Z,14.16
2023-03-31T12:28:17.544Z,14.28
2023-03-31T12:31:30.969Z,14.40
2023-03-31T12:34:53.160Z,14.61
2023-03-31T12:38:40.172Z,14.41
2023-03-31T12:42:18.766Z,14.32
2023-03-31T12:45:32.887Z,14.40
2023-03-31T12:49:09.734Z,14.34
2023-03-31T12:52:29.920Z,14.16
2023-03-31T12:55:43.779Z,14.05
2023-03-31T12:58:52.453Z,13.92
2023-03-31T13:02:29.731Z,13.89
2023-03-31T13:05:51.425Z,13.84
2023-03-31T13:09:01.359Z,13.80
2023-03-31T13:12:16.580Z,13.67
2023-03-31T13:15:30.482Z,13.55
2023-03-31T13:18:38.771Z,13.36
2023-03-31T13:21:58.215Z,13.24
2023-03-31T13:25:46.051Z,13.25
2023-03-31T13:29:25.326Z,13.15
2023-03-31T13:32:33.945Z,12.84
2023-03-31T13:35:44.886Z,12.74
2023-03-31T13:39:13.293Z,12.58
2023-03-31T13:43:14.151Z,12.83
2023-03-31T13:46:59.706Z,13.04
2023-03-31T13:50:59.469Z,13.06
2023-03-31T13:54:54.090Z,13.19
2023-03-31T13:59:07.533Z,13.16
2023-03-31T14:02:53.151Z,13.15
2023-03-31T14:06:15.782Z,13.18
2023-03-31T14:09:32.841Z,12.86
2023-03-31T14:12:41.636Z,12.76
2023-03-31T14:15:54.433Z,12.62
2023-03-31T14:19:32.580Z,12.32
2023-03-31T14:22:59.816Z,12.19
2023-03-31T14:26:22.801Z,12.02
2023-03-31T14:29:44.315Z,11.91
2023-03-31T14:33:14.628Z,11.82
2023-03-31T14:36:39.159Z,11.75
2023-03-31T14:39:53.488Z,11.67
2023-03-31T14:42:59.933Z,11.64
2023-03-31T14:46:10.377Z,11.62
2023-03-31T14:49:25.221Z,11.56
2023-03-31T14:52:36.524Z,11.51
2023-03-31T14:55:57.866Z,11.46
2023-03-31T14:59:08.998Z,11.44
2023-03-31T15:02:25.337Z,11.28
2023-03-31T15:05:37.477Z,11.29
2023-03-31T15:08:44.931Z,11.20
2023-03-31T15:12:03.792Z,11.07
2023-03-31T15:15:11.716Z,11.06
2023-03-31T15:18:20.619Z,11.05
2023-03-31T15:21:31.655Z,11.03
2023-03-31T15:24:38.307Z,11.06
2023-03-31T15:27:55.809Z,11.04
2023-03-31T15:34:34.998Z,11.03
2023-03-31T15:37:47.038Z,11.01
2023-03-31T15:40:59.921Z,11.00
2023-03-31T15:44:38.952Z,10.99
2023-03-31T15:47:55.631Z,10.92
2023-03-31T15:51:21.108Z,11.00
2023-03-31T15:54:39.386Z,11.00
2023-03-31T15:57:48.367Z,11.03
2023-03-31T16:01:09.007Z,11.06
2023-03-31T16:04:19.089Z,11.13
2023-03-31T16:07:30.275Z,11.12
2023-03-31T16:10:37.443Z,11.13
2023-03-31T16:13:52.457Z,11.15
2023-03-31T16:17:10.966Z,11.16
2023-03-31T16:20:26.049Z,11.12
2023-03-31T16:23:41.619Z,11.02
2023-03-31T16:26:48.225Z,11.18
2023-03-31T16:30:09.339Z,11.14
2023-03-31T16:33:21.399Z,11.21
2023-03-31T16:36:28.524Z,11.08
2023-03-31T16:39:34.802Z,11.18
2023-03-31T16:42:41.673Z,11.23
2023-03-31T16:45:59.760Z,11.16
2023-03-31T16:49:09.308Z,11.19
2023-03-31T16:52:15.292Z,11.14
2023-03-31T16:55:22.137Z,11.15
2023-03-31T16:58:29.773Z,11.16
2023-03-31T17:01:36.501Z,11.16
2023-03-31T17:04:45.223Z,11.01
2023-03-31T17:07:51.894Z,11.03
2023-03-31T17:11:03.599Z,11.08
2023-03-31T17:14:11.242Z,11.09
2023-03-31T17:17:18.092Z,11.07
2023-03-31T17:20:27.687Z,11.12
2023-03-31T17:23:33.877Z,11.12
2023-03-31T17:26:40.460Z,11.08
2023-03-31T17:29:46.213Z,11.00
2023-03-31T17:32:53.163Z,11.03
2023-03-31T17:36:05.013Z,10.90
2023-03-31T17:39:11.641Z,10.80
2023-03-31T17:42:19.427Z,10.40
2023-03-31T17:45:26.050Z,9.88
2023-03-31T17:48:34.391Z,9.56
2023-03-31T17:51:44.433Z,9.09
2023-03-31T17:54:50.950Z,8.78
2023-03-31T17:57:57.844Z,8.51
2023-03-31T18:01:04.178Z,8.37
2023-03-31T18:04:11.649Z,8.20
2023-03-31T18:07:23.552Z,8.04
2023-03-31T18:10:30.451Z,8.00
2023-03-31T18:13:38.390Z,7.92
2023-03-31T18:16:45.075Z,7.99
2023-03-31T18:19:51.163Z,8.04
2023-03-31T18:23:00.884Z,8.12
2023-03-31T18:26:10.386Z,8.10
2023-03-31T18:29:17.196Z,8.30
2023-03-31T18:32:23.428Z,8.40
2023-03-31T18:35:30.209Z,8.50
2023-03-31T18:38:40.197Z,8.57
2023-03-31T18:41:52.646Z,8.55
2023-03-31T18:44:58.623Z,8.57
2023-03-31T18:48:05.699Z,8.61
2023-03-31T18:51:12.101Z,8.61
2023-03-31T18:54:22.205Z,8.61
2023-03-31T18:57:28.440Z,8.58
2023-03-31T19:00:35.337Z,8.43
2023-03-31T19:03:42.870Z,8.54
2023-03-31T19:06:50.418Z,8.61
2023-03-31T19:09:59.479Z,8.61
2023-03-31T19:13:06.569Z,8.60
2023-03-31T19:16:13.535Z,8.55
2023-03-31T19:19:20.358Z,8.55
2023-03-31T19:22:28.054Z,8.59
2023-03-31T19:25:37.712Z,8.59
2023-03-31T19:28:43.947Z,8.64
2023-03-31T19:31:50.866Z,8.62
2023-03-31T19:34:59.139Z,8.58
2023-03-31T19:38:06.266Z,8.56
2023-03-31T19:41:14.988Z,8.63
2023-03-31T19:44:21.976Z,8.66
2023-03-31T19:47:27.947Z,8.68
2023-03-31T19:50:35.281Z,8.66
2023-03-31T19:53:42.299Z,8.67
2023-03-31T19:56:52.295Z,8.69
2023-03-31T19:59:58.391Z,8.66
2023-03-31T20:03:05.658Z,8.66
2023-03-31T20:06:15.485Z,8.73
2023-03-31T20:09:22.464Z,8.79
2023-03-31T20:12:31.143Z,8.82
2023-03-31T20:15:40.435Z,8.76
2023-03-31T20:18:48.445Z,8.79
2023-03-31T20:21:58.061Z,8.49
2023-03-31T20:25:03.799Z,8.68
2023-03-31T20:28:13.282Z,8.70
2023-03-31T20:31:22.733Z,8.65
2023-03-31T20:34:29.376Z,8.68
2023-03-31T20:37:35.329Z,8.60
2023-03-31T20:40:41.889Z,8.57
2023-03-31T20:43:51.412Z,8.48
2023-03-31T20:46:59.470Z,8.30
2023-03-31T20:50:06.100Z,8.40
2023-03-31T20:53:12.978Z,8.16
2023-03-31T20:56:22.041Z,8.28
2023-03-31T20:59:31.619Z,8.29
2023-03-31T21:02:38.168Z,8.23
2023-03-31T21:05:46.924Z,8.16
2023-03-31T21:08:57.640Z,8.15
2023-03-31T21:12:05.287Z,8.09
2023-03-31T21:15:15.284Z,8.06
2023-03-31T21:18:21.961Z,8.03
2023-03-31T21:21:28.085Z,8.02
2023-03-31T21:24:35.454Z,7.96
2023-03-31T21:27:41.298Z,7.93
2023-03-31T21:30:59.784Z,7.92
2023-03-31T21:34:06.071Z,7.81
2023-03-31T21:37:12.729Z,7.77
2023-03-31T21:40:19.087Z,7.81
2023-03-31T21:43:27.108Z,7.77
2023-03-31T21:46:37.092Z,7.79
2023-03-31T21:49:43.998Z,7.76
2023-03-31T21:52:50.047Z,7.74
2023-03-31T21:55:57.666Z,7.66
2023-03-31T21:59:04.598Z,7.55
2023-03-31T22:02:13.988Z,7.49
2023-03-31T22:05:20.224Z,7.42
2023-03-31T22:08:27.573Z,7.35
2023-03-31T22:11:33.316Z,7.27
2023-03-31T22:14:40.839Z,7.27
2023-03-31T22:17:49.860Z,7.18
2023-03-31T22:20:57.426Z,7.15
2023-03-31T22:24:05.031Z,7.12
2023-03-31T22:27:11.855Z,7.10
2023-03-31T22:30:18.505Z,7.11
2023-03-31T22:33:27.985Z,7.10
2023-03-31T22:36:33.748Z,7.08
2023-03-31T22:39:40.357Z,7.01
2023-03-31T22:42:46.255Z,6.93
2023-03-31T22:45:53.163Z,6.86
2023-03-31T22:49:01.725Z,6.87
2023-03-31T22:52:08.934Z,6.83
2023-03-31T22:55:14.599Z,6.79
2023-03-31T22:58:21.882Z,6.77
2023-03-31T23:01:27.760Z,6.77
2023-03-31T23:04:37.534Z,6.66
2023-03-31T23:07:43.505Z,6.62
2023-03-31T23:10:59.040Z,6.61
2023-03-31T23:14:05.242Z,6.64
2023-03-31T23:17:12.713Z,6.58
2023-03-31T23:20:21.861Z,6.68
2023-03-31T23:23:28.869Z,6.69
2023-03-31T23:26:37.631Z,5.91
2023-03-31T23:29:44.227Z,6.81
2023-03-31T23:32:50.226Z,6.81
2023-03-31T23:36:03.550Z,6.78
2023-03-31T23:39:10.937Z,6.83
2023-03-31T23:42:20.943Z,6.81
2023-03-31T23:45:26.958Z,6.84
2023-03-31T23:48:34.439Z,6.77
2023-03-31T23:51:43.137Z,6.75
2023-03-31T23:54:49.865Z,6.75
2023-03-31T23:57:55.681Z,6.71
